createdAt,value
2022-10-31T00:01:36.935Z,101462.00
2022-10-31T00:04:04.823Z,101454.63
2022-10-31T00:06:32.180Z,101451.94
2022-10-31T00:09:03.079Z,101442.69
2022-10-31T00:11:30.536Z,101451.56
2022-10-31T00:13:59.512Z,101452.41
2022-10-31T00:16:28.272Z,101448.88
2022-10-31T00:18:58.464Z,101451.22
2022-10-31T00:21:26.546Z,101447.50
2022-10-31T00:23:53.609Z,101449.81
2022-10-31T00:26:20.795Z,101448.44
2022-10-31T00:28:47.953Z,101450.06
2022-10-31T00:31:16.216Z,101461.63
2022-10-31T00:33:43.435Z,101453.44
2022-10-31T00:36:19.575Z,101467.22
2022-10-31T00:38:47.928Z,101476.56
2022-10-31T00:41:17.319Z,101468.97
2022-10-31T00:43:44.977Z,101472.47
2022-10-31T00:46:13.688Z,101469.22
2022-10-31T00:48:42.748Z,101460.91
2022-10-31T00:51:10.422Z,101475.28
2022-10-31T00:53:37.481Z,101475.50
2022-10-31T00:56:04.894Z,101478.44
2022-10-31T00:58:32.151Z,101480.75
2022-10-31T01:00:59.039Z,101485.06
2022-10-31T01:03:29.022Z,101485.06
2022-10-31T01:06:17.633Z,101482.38
2022-10-31T01:08:44.654Z,101488.22
2022-10-31T01:11:22.361Z,101485.53
2022-10-31T01:13:53.201Z,101477.72
2022-10-31T01:16:24.183Z,101476.09
2022-10-31T01:18:52.284Z,101487.88
2022-10-31T01:21:24.000Z,101487.06
2022-10-31T01:23:54.270Z,101487.63
2022-10-31T01:26:27.856Z,101487.63
2022-10-31T01:28:59.443Z,101488.22
2022-10-31T01:31:35.179Z,101492.09
2022-10-31T01:34:03.327Z,101484.03
2022-10-31T01:36:34.044Z,101480.53
2022-10-31T01:39:08.672Z,101483.34
2022-10-31T01:41:38.986Z,101483.69
2022-10-31T01:44:15.077Z,101488.00
2022-10-31T01:47:08.725Z,101490.69
2022-10-31T01:49:46.004Z,101490.34
2022-10-31T01:52:27.308Z,101489.75
2022-10-31T01:55:17.091Z,101487.88
2022-10-31T01:57:48.612Z,101486.25
2022-10-31T02:00:20.934Z,101483.34
2022-10-31T02:02:50.451Z,101483.22
2022-10-31T02:05:25.881Z,101502.94
2022-10-31T02:08:00.958Z,101504.69
2022-10-31T02:10:33.036Z,101510.28
2022-10-31T02:13:05.631Z,101502.25
2022-10-31T02:15:38.644Z,101505.50
2022-10-31T02:18:07.049Z,101503.41
2022-10-31T02:20:48.694Z,101501.53
2022-10-31T02:24:04.783Z,101501.53
2022-10-31T02:27:03.787Z,101493.13
2022-10-31T02:29:43.059Z,101499.31
2022-10-31T02:33:18.507Z,101492.53
2022-10-31T02:36:17.602Z,101505.84
2022-10-31T02:39:05.048Z,101501.75
2022-10-31T02:42:03.963Z,101498.13
2022-10-31T02:44:47.241Z,101494.25
2022-10-31T02:47:17.986Z,101499.03
2022-10-31T02:49:56.673Z,101498.88
2022-10-31T02:52:29.596Z,101504.47
2022-10-31T02:55:35.014Z,101497.13
2022-10-31T02:58:12.849Z,101498.84
2022-10-31T03:00:52.043Z,101500.00
2022-10-31T03:03:41.389Z,101505.81
2022-10-31T03:06:26.066Z,101509.78
2022-10-31T03:09:10.292Z,101520.97
2022-10-31T03:12:40.255Z,101517.09
2022-10-31T03:15:29.918Z,101528.28
2022-10-31T03:18:10.754Z,101519.66
2022-10-31T03:20:45.896Z,101529.78
2022-10-31T03:23:16.839Z,101525.69
2022-10-31T03:25:49.439Z,101529.88
2022-10-31T03:28:20.287Z,101536.28
2022-10-31T03:30:49.330Z,101536.28
2022-10-31T03:33:27.506Z,101529.88
2022-10-31T03:36:01.033Z,101532.78
2022-10-31T03:38:30.794Z,101547.16
2022-10-31T03:41:01.318Z,101537.38
2022-10-31T03:43:34.308Z,101545.78
2022-10-31T03:46:03.011Z,101538.09
2022-10-31T03:48:30.097Z,101552.47
2022-10-31T03:51:23.515Z,101563.13
2022-10-31T03:54:07.175Z,101557.88
2022-10-31T03:56:53.444Z,101561.53
2022-10-31T03:59:35.282Z,101563.88
2022-10-31T04:02:09.691Z,101553.31
2022-10-31T04:04:39.163Z,101554.03
2022-10-31T04:07:08.025Z,101558.03
2022-10-31T04:09:39.797Z,101548.22
2022-10-31T04:12:10.069Z,101558.53
2022-10-31T04:15:04.446Z,101557.59
2022-10-31T04:17:36.194Z,101561.22
2022-10-31T04:20:04.100Z,101562.16
2022-10-31T04:22:31.681Z,101565.22
2022-10-31T04:25:00.545Z,101573.84
2022-10-31T04:27:27.492Z,101574.00
2022-10-31T04:29:54.395Z,101569.22
2022-10-31T04:32:21.211Z,101576.81
2022-10-31T04:34:48.178Z,101567.94
2022-10-31T04:37:14.979Z,101566.88
2022-10-31T04:39:42.035Z,101567.25
2022-10-31T04:42:32.264Z,101570.28
2022-10-31T04:45:02.369Z,101571.31
2022-10-31T04:47:34.395Z,101576.47
2022-10-31T04:50:03.084Z,101576.69
2022-10-31T04:52:29.938Z,101583.13
2022-10-31T04:54:57.730Z,101576.94
2022-10-31T04:57:48.942Z,101583.31
2022-10-31T05:00:20.890Z,101579.00
2022-10-31T05:02:53.801Z,101573.63
2022-10-31T05:05:25.594Z,101572.56
2022-10-31T05:07:53.706Z,101580.88
2022-10-31T05:10:26.130Z,101579.47
2022-10-31T05:12:56.875Z,101579.22
2022-10-31T05:15:42.518Z,101579.22
2022-10-31T05:18:18.087Z,101588.56
2022-10-31T05:21:04.551Z,101591.25
2022-10-31T05:23:45.915Z,101589.84
2022-10-31T05:26:15.951Z,101587.38
2022-10-31T05:28:42.810Z,101589.38
2022-10-31T05:31:09.804Z,101585.06
2022-10-31T05:33:36.675Z,101605.72
2022-10-31T05:36:18.522Z,101596.84
2022-10-31T05:38:55.173Z,101604.09
2022-10-31T05:41:26.756Z,101604.31
2022-10-31T05:44:02.704Z,101606.78
2022-10-31T05:46:32.043Z,101605.72
2022-10-31T05:49:18.368Z,101602.81
2022-10-31T05:52:04.027Z,101599.31
2022-10-31T05:54:40.335Z,101601.63
2022-10-31T05:57:07.455Z,101600.47
2022-10-31T05:59:34.655Z,101604.56
2022-10-31T06:02:02.287Z,101608.19
2022-10-31T06:04:49.372Z,101600.22
2022-10-31T06:07:16.671Z,101599.19
2022-10-31T06:09:43.892Z,101606.53
2022-10-31T06:12:11.405Z,101605.66
2022-10-31T06:15:12.619Z,101608.94
2022-10-31T06:17:39.594Z,101615.47
2022-10-31T06:20:25.278Z,101623.31
2022-10-31T06:23:05.218Z,101620.38
2022-10-31T06:25:34.160Z,101624.25
2022-10-31T06:28:01.179Z,101618.88
2022-10-31T06:30:36.879Z,101625.44
2022-10-31T06:33:05.840Z,101625.56
2022-10-31T06:35:35.507Z,101629.41
2022-10-31T06:38:03.588Z,101637.41
2022-10-31T06:40:38.299Z,101635.88
2022-10-31T06:43:27.364Z,101639.75
2022-10-31T06:46:13.094Z,101644.66
2022-10-31T06:49:07.763Z,101650.63
2022-10-31T06:51:53.975Z,101652.13
2022-10-31T06:54:22.495Z,101657.63
2022-10-31T06:56:49.827Z,101656.94
2022-10-31T06:59:17.331Z,101658.47
2022-10-31T07:02:16.833Z,101673.06
2022-10-31T07:04:44.215Z,101663.47
2022-10-31T07:07:14.454Z,101665.81
2022-10-31T07:09:41.943Z,101664.63
2022-10-31T07:12:10.926Z,101664.97
2022-10-31T07:14:43.353Z,101662.66
2022-10-31T07:17:11.096Z,101672.47
2022-10-31T07:19:41.872Z,101676.03
2022-10-31T07:22:10.425Z,101659.94
2022-10-31T07:24:38.660Z,101661.94
2022-10-31T07:27:24.415Z,101661.97
2022-10-31T07:29:51.928Z,101662.38
2022-10-31T07:32:18.793Z,101673.56
2022-10-31T07:34:52.483Z,101665.16
2022-10-31T07:37:22.414Z,101669.09
2022-10-31T07:39:49.302Z,101665.41
2022-10-31T07:42:16.875Z,101658.78
2022-10-31T07:44:45.556Z,101667.00
2022-10-31T07:47:15.352Z,101668.72
2022-10-31T07:50:02.608Z,101666.84
2022-10-31T07:53:07.659Z,101672.56
2022-10-31T07:55:49.308Z,101670.31
2022-10-31T07:58:17.935Z,101670.41
2022-10-31T08:00:47.699Z,101664.97
2022-10-31T08:03:20.265Z,101669.25
2022-10-31T08:05:47.345Z,101666.06
2022-10-31T08:08:40.519Z,101674.56
2022-10-31T08:11:09.252Z,101666.91
2022-10-31T08:13:36.083Z,101672.84
2022-10-31T08:16:05.622Z,101664.13
2022-10-31T08:18:38.339Z,101662.78
2022-10-31T08:21:07.124Z,101665.38
2022-10-31T08:23:34.033Z,101672.97
2022-10-31T08:26:01.622Z,101668.34
2022-10-31T08:28:28.482Z,101673.56
2022-10-31T08:30:58.381Z,101668.97
2022-10-31T08:33:57.356Z,101677.22
2022-10-31T08:36:47.216Z,101672.94
2022-10-31T08:39:25.114Z,101675.78
2022-10-31T08:41:52.071Z,101685.69
2022-10-31T08:44:18.965Z,101691.25
2022-10-31T08:46:45.973Z,101684.81
2022-10-31T08:49:12.966Z,101686.56
2022-10-31T08:51:42.767Z,101680.41
2022-10-31T08:54:09.802Z,101691.09
2022-10-31T08:56:36.626Z,101679.66
2022-10-31T08:59:10.466Z,101666.03
2022-10-31T09:01:57.748Z,101670.66
2022-10-31T09:04:25.477Z,101663.78
2022-10-31T09:09:39.244Z,101673.16
2022-10-31T09:12:06.271Z,101673.44
2022-10-31T09:14:56.276Z,101664.97
2022-10-31T09:17:31.425Z,101673.50
2022-10-31T09:20:21.183Z,101686.38
2022-10-31T09:22:48.365Z,101672.69
2022-10-31T09:25:15.511Z,101678.31
2022-10-31T09:27:47.721Z,101685.66
2022-10-31T09:30:14.753Z,101673.75
2022-10-31T09:32:43.897Z,101674.53
2022-10-31T09:37:44.155Z,101676.50
2022-10-31T09:40:11.555Z,101674.94
2022-10-31T09:42:53.484Z,101673.75
2022-10-31T09:46:03.522Z,101665.97
2022-10-31T09:48:54.526Z,101661.94
2022-10-31T09:52:33.950Z,101667.81
2022-10-31T09:55:29.020Z,101665.28
2022-10-31T09:57:56.529Z,101671.44
2022-10-31T10:00:23.767Z,101669.19
2022-10-31T10:03:17.879Z,101671.84
2022-10-31T10:06:13.747Z,101670.69
2022-10-31T10:09:01.703Z,101656.66
2022-10-31T10:11:54.568Z,101666.47
2022-10-31T10:14:49.576Z,101668.56
2022-10-31T10:17:55.301Z,101675.47
2022-10-31T10:20:34.983Z,101665.59
2022-10-31T10:23:37.636Z,101665.66
2022-10-31T10:26:18.633Z,101664.13
2022-10-31T10:29:12.577Z,101666.34
2022-10-31T10:31:43.644Z,101661.34
2022-10-31T10:34:22.208Z,101652.91
2022-10-31T10:36:59.129Z,101656.16
2022-10-31T10:39:44.627Z,101656.00
2022-10-31T10:42:35.437Z,101646.94
2022-10-31T10:45:36.139Z,101644.34
2022-10-31T10:48:36.702Z,101644.03
2022-10-31T10:51:06.251Z,101649.84
2022-10-31T10:54:06.566Z,101639.81
2022-10-31T10:57:07.121Z,101643.97
2022-10-31T10:59:35.624Z,101656.16
2022-10-31T11:02:04.831Z,101656.75
2022-10-31T11:04:39.575Z,101652.69
2022-10-31T11:07:13.091Z,101653.00
2022-10-31T11:09:40.382Z,101651.44
2022-10-31T11:12:17.608Z,101658.47
2022-10-31T11:14:53.376Z,101653.00
2022-10-31T11:17:35.556Z,101649.75
2022-10-31T11:20:05.680Z,101646.97
2022-10-31T11:22:32.787Z,101634.16
2022-10-31T11:24:59.697Z,101644.63
2022-10-31T11:27:27.436Z,101637.19
2022-10-31T11:30:05.053Z,101627.53
2022-10-31T11:32:32.767Z,101615.84
2022-10-31T11:35:10.775Z,101613.28
2022-10-31T11:37:44.292Z,101604.59
2022-10-31T11:40:23.950Z,101617.34
2022-10-31T11:42:54.942Z,101609.75
2022-10-31T11:45:24.789Z,101602.63
2022-10-31T11:47:59.601Z,101613.44
2022-10-31T11:50:42.856Z,101615.53
2022-10-31T11:53:21.467Z,101611.00
2022-10-31T11:56:05.152Z,101614.38
2022-10-31T11:58:32.545Z,101604.09
2022-10-31T12:00:59.429Z,101607.16
2022-10-31T12:03:55.520Z,101604.78
2022-10-31T12:06:34.070Z,101601.56
2022-10-31T12:09:02.354Z,101596.72
2022-10-31T12:12:12.659Z,101596.22
2022-10-31T12:15:34.761Z,101596.56
2022-10-31T12:18:52.144Z,101591.34
2022-10-31T12:21:43.940Z,101588.44
2022-10-31T12:24:49.508Z,101579.50
2022-10-31T12:27:24.093Z,101579.94
2022-10-31T12:30:01.953Z,101572.78
2022-10-31T12:32:43.258Z,101574.88
2022-10-31T12:35:36.492Z,101566.50
2022-10-31T12:38:47.136Z,101572.41
2022-10-31T12:41:28.455Z,101561.81
2022-10-31T12:44:23.866Z,101559.09
2022-10-31T12:47:15.542Z,101563.09
2022-10-31T12:50:14.103Z,101555.69
2022-10-31T12:53:22.025Z,101551.34
2022-10-31T12:56:09.400Z,101548.63
2022-10-31T12:58:40.442Z,101551.88
2022-10-31T13:01:16.008Z,101547.50
2022-10-31T13:04:03.944Z,101539.03
2022-10-31T13:06:44.485Z,101550.50
2022-10-31T13:09:19.404Z,101539.03
2022-10-31T13:11:54.560Z,101538.00
2022-10-31T13:14:56.442Z,101543.91
2022-10-31T13:17:34.388Z,101538.50
2022-10-31T13:20:19.120Z,101536.25
2022-10-31T13:22:51.545Z,101535.72
2022-10-31T13:25:31.187Z,101538.72
2022-10-31T13:28:04.274Z,101539.63
2022-10-31T13:30:37.987Z,101527.47
2022-10-31T13:33:16.522Z,101528.47
2022-10-31T13:35:57.296Z,101523.91
2022-10-31T13:38:58.812Z,101525.78
2022-10-31T13:41:45.511Z,101516.47
2022-10-31T13:44:26.011Z,101528.44
2022-10-31T13:46:58.725Z,101525.25
2022-10-31T13:49:31.888Z,101527.19
2022-10-31T13:52:13.879Z,101514.50
2022-10-31T13:54:52.766Z,101511.84
2022-10-31T13:57:44.930Z,101514.56
2022-10-31T14:00:21.572Z,101522.19
2022-10-31T14:02:52.441Z,101515.81
2022-10-31T14:05:35.480Z,101523.34
2022-10-31T14:08:19.282Z,101525.56
2022-10-31T14:10:53.103Z,101524.31
2022-10-31T14:13:38.283Z,101523.00
2022-10-31T14:16:08.357Z,101513.13
2022-10-31T14:18:39.841Z,101524.94
2022-10-31T14:21:32.706Z,101523.69
2022-10-31T14:23:59.696Z,101529.72
2022-10-31T14:26:29.387Z,101524.22
2022-10-31T14:29:33.735Z,101522.66
2022-10-31T14:32:13.695Z,101528.94
2022-10-31T14:34:56.185Z,101525.16
2022-10-31T14:38:03.035Z,101529.88
2022-10-31T14:41:05.535Z,101523.03
2022-10-31T14:43:54.057Z,101518.66
2022-10-31T14:46:45.917Z,101518.16
2022-10-31T14:49:50.969Z,101516.63
2022-10-31T14:52:20.619Z,101517.63
2022-10-31T14:54:54.787Z,101524.16
2022-10-31T14:57:29.215Z,101524.53
2022-10-31T15:00:21.350Z,101520.06
2022-10-31T15:03:28.288Z,101521.25
2022-10-31T15:05:59.750Z,101521.13
2022-10-31T15:08:46.393Z,101532.09
2022-10-31T15:11:28.435Z,101510.94
2022-10-31T15:13:59.537Z,101519.59
2022-10-31T15:16:40.701Z,101516.59
2022-10-31T15:19:11.993Z,101517.41
2022-10-31T15:21:48.553Z,101514.84
2022-10-31T15:24:18.362Z,101514.00
2022-10-31T15:26:56.959Z,101520.75
2022-10-31T15:29:28.023Z,101528.06
2022-10-31T15:32:01.057Z,101523.28
2022-10-31T15:34:39.331Z,101524.00
2022-10-31T15:37:15.706Z,101527.97
2022-10-31T15:39:43.772Z,101517.28
2022-10-31T15:42:29.590Z,101521.19
2022-10-31T15:45:06.453Z,101525.16
2022-10-31T15:47:34.469Z,101508.38
2022-10-31T15:50:05.023Z,101514.16
2022-10-31T15:52:45.209Z,101522.69
2022-10-31T15:55:25.272Z,101525.19
2022-10-31T15:58:05.278Z,101520.09
2022-10-31T16:00:39.203Z,101530.72
2022-10-31T16:03:15.506Z,101531.31
2022-10-31T16:05:55.816Z,101529.19
2022-10-31T16:08:32.028Z,101535.75
2022-10-31T16:11:08.726Z,101536.03
2022-10-31T16:14:00.693Z,101538.75
2022-10-31T16:16:35.092Z,101530.38
2022-10-31T16:19:05.839Z,101538.78
2022-10-31T16:21:37.254Z,101539.34
2022-10-31T16:24:30.448Z,101546.38
2022-10-31T16:27:26.539Z,101539.84
2022-10-31T16:29:54.221Z,101552.34
2022-10-31T16:32:33.719Z,101552.59
2022-10-31T16:35:12.698Z,101544.16
2022-10-31T16:37:43.245Z,101544.97
2022-10-31T16:40:15.406Z,101554.16
2022-10-31T16:42:43.836Z,101536.50
2022-10-31T16:45:23.823Z,101546.28
2022-10-31T16:47:51.955Z,101542.44
2022-10-31T16:50:24.074Z,101540.78
2022-10-31T16:53:12.956Z,101535.34
2022-10-31T16:55:46.666Z,101530.13
2022-10-31T16:58:20.213Z,101536.88
2022-10-31T17:00:47.948Z,101534.69
2022-10-31T17:03:15.003Z,101536.25
2022-10-31T17:05:42.021Z,101540.84
2022-10-31T17:08:09.465Z,101541.06
2022-10-31T17:10:36.958Z,101536.72
2022-10-31T17:13:07.388Z,101533.16
2022-10-31T17:15:45.839Z,101536.38
2022-10-31T17:18:17.170Z,101538.50
2022-10-31T17:20:45.360Z,101534.91
2022-10-31T17:23:15.057Z,101535.16
2022-10-31T17:25:42.709Z,101525.34
2022-10-31T17:28:13.913Z,101536.72
2022-10-31T17:30:44.163Z,101530.72
2022-10-31T17:33:17.035Z,101529.84
2022-10-31T17:35:44.889Z,101528.44
2022-10-31T17:38:12.780Z,101523.81
2022-10-31T17:40:44.320Z,101523.28
2022-10-31T17:43:12.064Z,101521.31
2022-10-31T17:45:41.523Z,101515.03
2022-10-31T17:48:12.778Z,101515.56
2022-10-31T17:50:40.084Z,101504.97
2022-10-31T17:53:06.886Z,101502.47
2022-10-31T17:55:37.134Z,101510.00
2022-10-31T17:58:05.484Z,101513.50
2022-10-31T18:00:33.143Z,101504.47
2022-10-31T18:03:03.000Z,101517.50
2022-10-31T18:05:30.305Z,101513.63
2022-10-31T18:08:02.499Z,101521.69
2022-10-31T18:10:31.315Z,101519.50
2022-10-31T18:12:58.358Z,101512.44
2022-10-31T18:15:25.563Z,101512.13
2022-10-31T18:17:52.531Z,101505.59
2022-10-31T18:20:19.423Z,101510.19
2022-10-31T18:22:46.277Z,101508.19
2022-10-31T18:25:13.650Z,101512.28
2022-10-31T18:27:40.449Z,101501.16
2022-10-31T18:30:08.336Z,101524.09
2022-10-31T18:32:36.426Z,101504.84
2022-10-31T18:35:03.427Z,101510.47
2022-10-31T18:37:30.241Z,101507.53
2022-10-31T18:39:57.558Z,101507.22
2022-10-31T18:42:24.379Z,101500.91
2022-10-31T18:44:51.531Z,101494.16
2022-10-31T18:47:19.298Z,101490.88
2022-10-31T18:49:46.187Z,101498.97
2022-10-31T18:52:12.985Z,101497.03
2022-10-31T18:54:40.261Z,101489.69
2022-10-31T18:57:07.200Z,101497.81
2022-10-31T18:59:34.092Z,101492.91
2022-10-31T19:02:01.369Z,101492.09
2022-10-31T19:04:28.258Z,101499.06
2022-10-31T19:06:55.998Z,101499.31
2022-10-31T19:09:24.388Z,101477.00
2022-10-31T19:11:51.200Z,101486.81
2022-10-31T19:14:18.195Z,101480.28
2022-10-31T19:16:45.255Z,101479.44
2022-10-31T19:19:12.236Z,101479.97
2022-10-31T19:21:39.046Z,101479.13
2022-10-31T19:24:06.975Z,101469.41
2022-10-31T19:26:34.893Z,101466.66
2022-10-31T19:29:01.956Z,101470.66
2022-10-31T19:31:29.401Z,101468.47
2022-10-31T19:33:56.301Z,101461.44
2022-10-31T19:36:23.829Z,101470.94
2022-10-31T19:38:53.253Z,101467.66
2022-10-31T19:41:24.603Z,101465.72
2022-10-31T19:43:52.615Z,101465.72
2022-10-31T19:46:40.540Z,101463.28
2022-10-31T19:49:10.422Z,101457.25
2022-10-31T19:51:37.557Z,101460.50
2022-10-31T19:54:04.502Z,101460.75
2022-10-31T19:56:31.302Z,101459.13
2022-10-31T19:59:02.891Z,101450.72
2022-10-31T20:01:30.409Z,101452.34
2022-10-31T20:03:57.309Z,101451.22
2022-10-31T20:06:35.178Z,101439.63
2022-10-31T20:09:08.077Z,101442.00
2022-10-31T20:11:37.495Z,101435.47
2022-10-31T20:14:05.083Z,101440.06
2022-10-31T20:16:32.500Z,101431.66
2022-10-31T20:18:59.837Z,101425.69
2022-10-31T20:21:29.641Z,101426.75
2022-10-31T20:24:02.808Z,101425.38
2022-10-31T20:26:32.016Z,101423.44
2022-10-31T20:29:00.643Z,101422.63
2022-10-31T20:31:32.416Z,101423.13
2022-10-31T20:33:59.459Z,101419.25
2022-10-31T20:36:28.630Z,101417.63
2022-10-31T20:38:55.895Z,101423.75
2022-10-31T20:41:22.745Z,101419.69
2022-10-31T20:43:49.742Z,101416.34
2022-10-31T20:46:23.403Z,101416.59
2022-10-31T20:48:51.093Z,101413.91
2022-10-31T20:51:24.232Z,101411.44
2022-10-31T20:53:53.175Z,101414.06
2022-10-31T20:56:23.451Z,101413.22
2022-10-31T20:58:51.721Z,101416.75
2022-10-31T21:01:25.418Z,101410.78
2022-10-31T21:03:53.104Z,101401.81
2022-10-31T21:06:21.327Z,101403.19
2022-10-31T21:08:48.225Z,101408.84
2022-10-31T21:11:20.267Z,101408.84
2022-10-31T21:13:48.804Z,101407.19
2022-10-31T21:16:28.919Z,101409.91
2022-10-31T21:18:56.023Z,101406.88
2022-10-31T21:21:32.101Z,101396.09
2022-10-31T21:24:15.116Z,101403.38
2022-10-31T21:26:45.980Z,101404.19
2022-10-31T21:29:14.254Z,101399.53
2022-10-31T21:31:42.520Z,101404.44
2022-10-31T21:34:09.491Z,101401.16
2022-10-31T21:36:37.062Z,101399.03
2022-10-31T21:39:06.604Z,101393.09
2022-10-31T21:41:33.926Z,101379.88
2022-10-31T21:44:01.063Z,101378.25
2022-10-31T21:46:31.199Z,101375.78
2022-10-31T21:48:58.581Z,101376.28
2022-10-31T21:51:29.617Z,101371.72
2022-10-31T21:54:15.938Z,101363.31
2022-10-31T21:56:43.548Z,101354.66
2022-10-31T21:59:10.659Z,101364.06
2022-10-31T22:01:38.220Z,101357.28
2022-10-31T22:04:06.350Z,101356.72
2022-10-31T22:06:33.451Z,101355.09
2022-10-31T22:09:03.109Z,101352.63
2022-10-31T22:11:30.738Z,101345.06
2022-10-31T22:14:00.044Z,101352.88
2022-10-31T22:16:30.146Z,101348.81
2022-10-31T22:19:00.126Z,101351.75
2022-10-31T22:21:28.416Z,101349.53
2022-10-31T22:24:01.883Z,101347.69
2022-10-31T22:26:32.563Z,101354.63
2022-10-31T22:29:00.713Z,101349.78
2022-10-31T22:31:30.007Z,101354.38
2022-10-31T22:33:57.461Z,101344.09
2022-10-31T22:36:28.442Z,101337.56
2022-10-31T22:38:55.816Z,101346.84
2022-10-31T22:41:26.303Z,101356.56
2022-10-31T22:43:55.311Z,101356.06
2022-10-31T22:46:34.732Z,101350.75
2022-10-31T22:49:06.610Z,101342.19
2022-10-31T22:51:37.697Z,101329.53
2022-10-31T22:54:07.670Z,101335.00
2022-10-31T22:56:35.509Z,101331.81
2022-10-31T22:59:03.146Z,101327.81
2022-10-31T23:01:33.022Z,101317.34
2022-10-31T23:04:00.862Z,101315.22
2022-10-31T23:06:30.826Z,101302.88
2022-10-31T23:09:01.457Z,101304.81
2022-10-31T23:11:33.449Z,101297.31
2022-10-31T23:14:10.843Z,101294.63
2022-10-31T23:16:47.692Z,101299.50
2022-10-31T23:19:20.529Z,101285.53
2022-10-31T23:22:01.996Z,101294.19
2022-10-31T23:24:43.916Z,101287.25
2022-10-31T23:27:19.296Z,101281.63
2022-10-31T23:29:54.612Z,101277.59
2022-10-31T23:32:37.115Z,101274.66
2022-10-31T23:35:10.282Z,101270.66
2022-10-31T23:37:38.531Z,101259.88
2022-10-31T23:40:08.602Z,101257.22
2022-10-31T23:42:36.086Z,101263.44
2022-10-31T23:45:03.349Z,101255.09
2022-10-31T23:47:30.321Z,101264.91
2022-10-31T23:49:57.194Z,101267.09
2022-10-31T23:52:24.153Z,101254.41
2022-10-31T23:54:50.983Z,101251.53
2022-10-31T23:57:18.344Z,101237.22
2022-10-31T23:59:45.452Z,101236.72
